createdAt,value
2024-01-08T00:06:59.030Z,76.77
2024-01-08T00:22:01.567Z,77.15
2024-01-08T00:37:04.309Z,77.25
2024-01-08T00:52:07.137Z,76.99
2024-01-08T01:07:10.671Z,76.84
2024-01-08T01:22:13.312Z,76.63
2024-01-08T01:37:15.773Z,76.68
2024-01-08T01:52:19.048Z,76.89
2024-01-08T02:21:40.340Z,77.52
2024-01-08T02:36:42.788Z,77.31
2024-01-08T02:51:45.076Z,77.40
2024-01-08T03:06:47.557Z,77.05
2024-01-08T03:21:49.891Z,76.89
2024-01-08T03:36:52.325Z,76.95
2024-01-08T03:51:54.646Z,77.10
2024-01-08T04:06:56.938Z,77.18
2024-01-08T04:21:59.540Z,77.51
2024-01-08T04:37:02.047Z,77.53
2024-01-08T04:52:04.931Z,77.61
2024-01-08T05:07:08.844Z,77.78
2024-01-08T05:22:11.286Z,77.56
2024-01-08T05:37:13.783Z,77.44
2024-01-08T05:52:16.358Z,77.52
2024-01-08T06:07:18.765Z,77.74
2024-01-08T06:22:21.120Z,77.79
2024-01-08T06:37:23.714Z,77.84
2024-01-08T06:52:30.868Z,77.86
2024-01-08T07:07:38.937Z,77.79
2024-01-08T07:22:42.142Z,77.99
2024-01-08T07:37:45.290Z,77.83
2024-01-08T07:52:50.224Z,77.59
2024-01-08T08:07:53.067Z,77.31
2024-01-08T08:22:56.132Z,76.88
2024-01-08T08:37:59.125Z,75.78
2024-01-08T08:53:03.099Z,75.02
2024-01-08T09:08:06.338Z,73.75
2024-01-08T09:23:09.571Z,73.24
2024-01-08T09:38:18.380Z,72.93
2024-01-08T09:53:37.231Z,72.70
2024-01-08T10:21:34.858Z,71.61
2024-01-08T10:36:43.123Z,71.84
2024-01-08T10:51:50.402Z,71.56
2024-01-08T11:06:56.591Z,71.10
2024-01-08T11:22:12.443Z,71.05
2024-01-08T11:46:52.604Z,70.61
2024-01-08T12:01:55.898Z,70.97
2024-01-08T12:17:02.642Z,71.63
2024-01-08T12:41:29.455Z,71.77
2024-01-08T12:56:37.751Z,71.73
2024-01-08T13:11:44.537Z,71.91
2024-01-08T13:26:51.634Z,71.54
2024-01-08T13:41:57.893Z,71.04
2024-01-08T13:57:00.670Z,71.37
2024-01-08T14:12:04.049Z,71.26
2024-01-08T14:27:44.234Z,71.53
2024-01-08T14:42:47.315Z,72.57
2024-01-08T14:57:49.863Z,72.95
2024-01-08T15:12:52.864Z,73.27
2024-01-08T15:27:55.436Z,73.21
2024-01-08T15:42:58.199Z,73.65
2024-01-08T15:58:04.740Z,73.74
2024-01-08T16:13:07.304Z,73.91
2024-01-08T16:28:10.673Z,74.03
2024-01-08T16:43:18.204Z,73.99
2024-01-08T16:58:29.345Z,74.51
2024-01-08T17:13:33.704Z,74.61
2024-01-08T17:28:36.174Z,74.77
2024-01-08T17:43:38.779Z,74.67
2024-01-08T17:58:41.471Z,74.82
2024-01-08T18:13:46.620Z,74.98
2024-01-08T18:28:49.426Z,75.28
2024-01-08T18:43:51.969Z,74.97
2024-01-08T18:58:56.332Z,75.45
2024-01-08T19:13:58.927Z,75.55
2024-01-08T19:29:01.657Z,75.64
2024-01-08T19:44:04.541Z,75.79
2024-01-08T19:59:07.311Z,75.68
2024-01-08T20:14:10.150Z,75.82
2024-01-08T20:29:13.155Z,75.66
2024-01-08T20:44:17.274Z,76.00
2024-01-08T20:59:45.294Z,76.09
2024-01-08T21:14:48.580Z,76.56
2024-01-08T21:29:51.183Z,76.74
2024-01-08T21:44:53.693Z,76.87
2024-01-08T21:59:57.200Z,77.10
2024-01-08T22:14:59.843Z,76.98
2024-01-08T22:30:02.553Z,76.99
2024-01-08T22:51:12.531Z,76.99
2024-01-08T23:06:15.474Z,76.54
2024-01-08T23:21:17.978Z,75.99
2024-01-08T23:36:20.820Z,75.51
2024-01-08T23:51:23.647Z,75.07
